Time;durP1;ratioP1;P1;durP2;ratioP2;P2;SDS_P1;SDS_P2;PMS_P1;PMS_P2;Temp;Humidity;BMP_temperature;BMP_pressure;BME280_temperature;BME280_humidity;BME280_pressure;Samples;Min_cycle;Max_cycle;Signal;HPM_P1;HPM_P2
2022/06/29 00:02:12;;;;;;;7.30;4.28;;;15.50;99.90;;;;;;5039509;28;20056;-82
2022/06/29 00:04:38;;;;;;;7.00;4.43;;;15.50;99.90;;;;;;5027283;28;20090;-82
2022/06/29 00:07:03;;;;;;;8.63;4.63;;;15.50;99.90;;;;;;5025661;28;20053;-81
2022/06/29 00:09:29;;;;;;;6.35;4.80;;;15.40;99.90;;;;;;5031876;28;20052;-82
2022/06/29 00:11:55;;;;;;;6.85;4.53;;;15.50;99.90;;;;;;5031162;28;20045;-82
2022/06/29 00:14:20;;;;;;;9.50;5.13;;;15.60;99.90;;;;;;5040584;28;20040;-82
2022/06/29 00:16:49;;;;;;;6.45;4.82;;;15.50;99.90;;;;;;5034483;28;20062;-81
2022/06/29 00:19:15;;;;;;;8.10;4.88;;;15.40;99.90;;;;;;5036276;28;20084;-81
2022/06/29 00:21:40;;;;;;;6.80;4.78;;;15.40;99.90;;;;;;5037528;28;20123;-83
2022/06/29 00:24:06;;;;;;;8.82;5.00;;;15.40;99.90;;;;;;5033253;28;20730;-81
2022/06/29 00:26:32;;;;;;;6.35;4.22;;;15.30;99.90;;;;;;5029140;28;20148;-82
2022/06/29 00:28:57;;;;;;;8.95;4.80;;;15.40;99.90;;;;;;5031055;28;20115;-82
2022/06/29 00:31:23;;;;;;;8.93;4.22;;;15.30;99.90;;;;;;5043469;28;20052;-82
2022/06/29 00:33:49;;;;;;;7.05;4.55;;;15.30;99.90;;;;;;5059832;28;20052;-82
2022/06/29 00:36:15;;;;;;;7.57;4.78;;;15.30;99.90;;;;;;5058983;28;20080;-81
2022/06/29 00:38:40;;;;;;;9.18;4.68;;;15.20;99.90;;;;;;5056876;28;20037;-81
2022/06/29 00:41:06;;;;;;;6.55;4.15;;;15.20;99.90;;;;;;5053454;28;20041;-82
2022/06/29 00:43:42;;;;;;;6.72;4.40;;;15.20;99.90;;;;;;5059250;28;20786;-82
2022/06/29 00:46:08;;;;;;;9.52;4.10;;;15.20;99.90;;;;;;5042302;28;20067;-82
2022/06/29 00:48:35;;;;;;;7.18;4.28;;;15.20;99.90;;;;;;5045901;28;20072;-82
2022/06/29 00:51:02;;;;;;;7.70;4.70;;;15.40;99.90;;;;;;5036235;28;20056;-82
2022/06/29 00:53:32;;;;;;;7.03;4.53;;;15.10;99.90;;;;;;5060383;28;20047;-82
2022/06/29 00:56:01;;;;;;;8.48;4.18;;;15.00;99.90;;;;;;5059092;28;20044;-81
2022/06/29 00:58:28;;;;;;;7.03;4.05;;;15.00;99.90;;;;;;5059570;28;20051;-82
2022/06/29 01:01:01;;;;;;;6.75;4.78;;;15.00;99.90;;;;;;5052753;28;20044;-82
2022/06/29 01:03:27;;;;;;;9.67;4.73;;;14.90;99.90;;;;;;5037825;28;20067;-82
2022/06/29 01:05:54;;;;;;;6.43;4.00;;;14.90;99.90;;;;;;5041922;28;20330;-81
2022/06/29 01:08:19;;;;;;;7.13;4.50;;;14.90;99.90;;;;;;5057764;28;20052;-82
2022/06/29 01:10:45;;;;;;;7.80;5.28;;;14.90;99.90;;;;;;5058621;28;20041;-81
2022/06/29 01:13:11;;;;;;;8.52;5.35;;;14.90;99.90;;;;;;5058819;28;20121;-82
2022/06/29 01:15:36;;;;;;;8.68;5.53;;;14.90;99.90;;;;;;5059280;28;20135;-82
2022/06/29 01:18:02;;;;;;;7.70;5.90;;;14.90;99.90;;;;;;5044775;28;20040;-82
2022/06/29 01:20:28;;;;;;;7.80;5.80;;;14.90;99.90;;;;;;5059746;28;20552;-81
2022/06/29 01:22:54;;;;;;;8.75;6.28;;;14.90;99.90;;;;;;5054695;28;20197;-82
2022/06/29 01:25:20;;;;;;;8.85;6.03;;;14.90;99.90;;;;;;5062965;28;20086;-82
2022/06/29 01:27:46;;;;;;;8.60;6.18;;;14.90;99.90;;;;;;5073864;28;20044;-82
2022/06/29 01:30:12;;;;;;;14.48;6.65;;;14.90;99.90;;;;;;5070414;28;20063;-83
2022/06/29 01:32:38;;;;;;;13.43;6.32;;;14.90;99.90;;;;;;5076489;28;20044;-82
2022/06/29 01:35:09;;;;;;;12.07;7.00;;;14.90;99.90;;;;;;5078090;28;20064;-82
2022/06/29 01:37:35;;;;;;;8.52;6.53;;;14.90;99.90;;;;;;5039485;28;20052;-81
2022/06/29 01:40:02;;;;;;;9.40;6.10;;;14.90;99.90;;;;;;5049855;28;20068;-82
2022/06/29 01:42:28;;;;;;;11.35;6.65;;;15.00;99.90;;;;;;5060837;28;20053;-82
2022/06/29 01:44:53;;;;;;;11.38;6.32;;;15.30;99.90;;;;;;5053347;28;20472;-82
2022/06/29 01:47:19;;;;;;;9.70;6.50;;;15.00;99.90;;;;;;5049153;28;20471;-82
2022/06/29 01:49:44;;;;;;;8.45;6.03;;;15.40;99.90;;;;;;5056829;28;20088;-82
2022/06/29 01:52:10;;;;;;;8.15;6.40;;;15.00;99.90;;;;;;5028556;28;20494;-82
2022/06/29 01:54:36;;;;;;;10.40;6.28;;;15.10;99.90;;;;;;5060305;28;20055;-81
2022/06/29 01:57:02;;;;;;;11.23;6.57;;;15.00;99.90;;;;;;5060009;28;20051;-82
2022/06/29 01:59:27;;;;;;;8.82;6.30;;;15.00;99.90;;;;;;5051796;28;20185;-81
2022/06/29 02:01:53;;;;;;;11.40;6.25;;;15.00;99.90;;;;;;5075568;28;20196;-82
2022/06/29 02:04:18;;;;;;;9.52;6.60;;;15.00;99.90;;;;;;5060362;28;20044;-82
2022/06/29 02:06:44;;;;;;;9.57;6.45;;;15.10;99.90;;;;;;5070640;28;20055;-81
2022/06/29 02:09:10;;;;;;;8.50;6.47;;;15.10;99.90;;;;;;5039586;28;20071;-82
2022/06/29 02:11:36;;;;;;;11.93;6.70;;;15.10;99.90;;;;;;5058505;28;20048;-82
2022/06/29 02:14:01;;;;;;;9.77;6.40;;;15.10;99.90;;;;;;5059748;28;20128;-82
2022/06/29 02:16:28;;;;;;;10.02;6.95;;;15.10;99.90;;;;;;5058532;28;20593;-82
2022/06/29 02:18:54;;;;;;;10.52;6.65;;;15.10;99.90;;;;;;5074871;28;20036;-81
2022/06/29 02:21:19;;;;;;;10.10;6.20;;;15.20;99.90;;;;;;5057623;28;20043;-82
2022/06/29 02:23:45;;;;;;;10.07;6.55;;;15.20;99.90;;;;;;5022258;28;20061;-82
2022/06/29 02:26:14;;;;;;;9.05;6.50;;;15.20;99.90;;;;;;5058853;28;20219;-81
2022/06/29 02:28:44;;;;;;;7.65;6.40;;;15.20;99.90;;;;;;5058359;28;20051;-81
2022/06/29 02:36:43;;;;;;;10.20;6.70;;;15.20;99.90;;;;;;5034876;28;20410;-82
2022/06/29 02:39:09;;;;;;;10.18;6.65;;;15.20;99.90;;;;;;5071898;28;20303;-81
2022/06/29 02:41:36;;;;;;;8.07;6.28;;;15.20;99.90;;;;;;5035443;28;20622;-81
2022/06/29 02:44:02;;;;;;;8.77;6.90;;;15.20;99.90;;;;;;5020667;28;20571;-80
2022/06/29 02:46:28;;;;;;;10.48;7.03;;;15.20;99.90;;;;;;5037737;28;20055;-82
2022/06/29 02:48:55;;;;;;;7.15;5.78;;;15.20;99.90;;;;;;5052258;28;20055;-82
2022/06/29 02:51:20;;;;;;;10.55;6.65;;;15.10;99.90;;;;;;5030393;28;20051;-81
2022/06/29 02:53:46;;;;;;;9.05;6.47;;;15.20;99.90;;;;;;5061149;28;20773;-81
2022/06/29 02:56:11;;;;;;;10.45;6.55;;;15.50;99.90;;;;;;5056236;28;20125;-82
2022/06/29 02:58:37;;;;;;;11.65;7.32;;;15.20;99.90;;;;;;5045756;28;20036;-82
2022/06/29 03:01:04;;;;;;;8.45;6.97;;;15.30;99.90;;;;;;5061893;28;20109;-81
2022/06/29 03:03:30;;;;;;;9.13;6.68;;;15.10;99.90;;;;;;5059107;28;20043;-82
2022/06/29 03:05:57;;;;;;;11.40;6.38;;;15.20;99.90;;;;;;5045168;28;20498;-82
2022/06/29 03:08:25;;;;;;;10.20;7.13;;;15.20;99.90;;;;;;5083382;28;20220;-82
2022/06/29 03:10:51;;;;;;;9.90;6.45;;;15.20;99.90;;;;;;5061345;28;20147;-81
2022/06/29 03:13:20;;;;;;;10.23;7.28;;;15.10;99.90;;;;;;5062404;28;20820;-81
2022/06/29 03:15:46;;;;;;;12.65;6.53;;;15.10;99.90;;;;;;5050182;28;20045;-81
2022/06/29 03:18:12;;;;;;;11.82;7.30;;;15.10;99.90;;;;;;5045476;28;20757;-81
2022/06/29 03:20:37;;;;;;;8.98;7.22;;;15.10;99.90;;;;;;5069761;28;20076;-82
2022/06/29 03:23:03;;;;;;;12.30;6.95;;;15.00;99.90;;;;;;5049027;28;20181;-81
2022/06/29 03:25:28;;;;;;;9.57;7.10;;;15.00;99.90;;;;;;5048288;28;20041;-82
2022/06/29 03:27:54;;;;;;;11.70;6.93;;;15.20;99.90;;;;;;5061335;28;20049;-81
2022/06/29 03:30:20;;;;;;;10.45;7.72;;;15.00;99.90;;;;;;5038498;28;20061;-81
2022/06/29 03:32:45;;;;;;;11.15;7.35;;;14.90;99.90;;;;;;5037501;28;20792;-82
2022/06/29 03:35:11;;;;;;;10.50;7.63;;;15.00;99.90;;;;;;5026825;28;20054;-82
2022/06/29 03:37:37;;;;;;;9.82;7.00;;;14.90;99.90;;;;;;5023362;28;20045;-81
2022/06/29 03:40:03;;;;;;;9.35;7.40;;;14.90;99.90;;;;;;5041638;28;20040;-82
2022/06/29 03:42:29;;;;;;;10.20;7.30;;;14.90;99.90;;;;;;5041900;28;20633;-82
2022/06/29 03:44:55;;;;;;;11.07;7.10;;;14.90;99.90;;;;;;5043594;28;20049;-82
2022/06/29 03:47:22;;;;;;;12.32;7.30;;;14.90;99.90;;;;;;5044848;28;20040;-81
2022/06/29 03:49:48;;;;;;;11.43;7.03;;;14.90;99.90;;;;;;5039002;28;20804;-81
2022/06/29 03:52:14;;;;;;;10.27;7.50;;;14.90;99.90;;;;;;5052054;28;20714;-82
2022/06/29 03:54:40;;;;;;;8.75;6.80;;;14.90;99.90;;;;;;5047958;28;20556;-82
2022/06/29 03:57:05;;;;;;;11.10;7.32;;;14.90;99.90;;;;;;5043899;28;20053;-81
2022/06/29 03:59:31;;;;;;;10.88;7.63;;;14.90;99.90;;;;;;5037483;28;20044;-81
2022/06/29 04:01:58;;;;;;;9.27;6.80;;;14.90;99.90;;;;;;5052617;28;20699;-82
2022/06/29 04:04:24;;;;;;;9.55;7.47;;;15.00;99.90;;;;;;5062318;28;20036;-82
2022/06/29 04:06:49;;;;;;;12.48;7.13;;;15.00;99.90;;;;;;5031304;28;20037;-80
2022/06/29 04:09:15;;;;;;;9.95;7.38;;;14.90;99.90;;;;;;5057031;28;20543;-82
2022/06/29 04:11:51;;;;;;;9.20;6.90;;;15.00;99.90;;;;;;5041056;28;20045;-82
2022/06/29 04:14:21;;;;;;;9.32;7.80;;;15.00;99.90;;;;;;5029270;28;20040;-82
2022/06/29 04:16:47;;;;;;;11.93;6.95;;;14.90;99.90;;;;;;5046340;28;20048;-81
2022/06/29 04:19:13;;;;;;;9.65;7.47;;;15.00;99.90;;;;;;5042104;28;20133;-82
2022/06/29 04:21:41;;;;;;;9.45;6.82;;;15.00;99.90;;;;;;5027072;28;20701;-82
2022/06/29 04:24:07;;;;;;;9.98;7.47;;;15.00;99.90;;;;;;5028133;28;20290;-81
2022/06/29 04:26:33;;;;;;;10.73;7.45;;;14.90;99.90;;;;;;5042991;28;20777;-82
2022/06/29 04:29:02;;;;;;;11.73;7.28;;;15.00;99.90;;;;;;5027254;28;20060;-81
2022/06/29 04:31:29;;;;;;;13.52;8.20;;;15.00;99.90;;;;;;5043221;28;20083;-81
2022/06/29 04:33:54;;;;;;;9.25;7.85;;;15.00;99.90;;;;;;5038117;28;20497;-81
2022/06/29 04:36:20;;;;;;;11.90;7.25;;;15.10;99.90;;;;;;5067327;28;20079;-78
2022/06/29 04:38:46;;;;;;;9.30;7.30;;;15.10;99.90;;;;;;5054218;28;20458;-82
2022/06/29 04:41:12;;;;;;;12.30;7.72;;;15.10;99.90;;;;;;5041746;28;20044;-81
2022/06/29 04:43:38;;;;;;;8.75;7.65;;;15.20;99.90;;;;;;5045006;28;20756;-82
2022/06/29 04:46:19;;;;;;;11.50;8.18;;;15.30;99.90;;;;;;5037519;28;20048;-82
2022/06/29 04:48:46;;;;;;;10.98;8.07;;;15.30;99.90;;;;;;5061687;28;20058;-82
2022/06/29 04:51:15;;;;;;;10.20;7.85;;;15.50;99.90;;;;;;5026952;28;20052;-81
2022/06/29 04:53:42;;;;;;;13.05;8.05;;;15.40;99.90;;;;;;5040840;28;20177;-81
2022/06/29 04:56:08;;;;;;;9.93;7.50;;;15.40;99.90;;;;;;5045452;28;20052;-81
2022/06/29 04:58:34;;;;;;;10.50;7.47;;;15.60;99.90;;;;;;5049846;28;20688;-81
2022/06/29 05:00:59;;;;;;;11.20;8.32;;;15.50;99.90;;;;;;5046281;28;20578;-81
2022/06/29 05:03:25;;;;;;;10.05;7.35;;;15.60;99.90;;;;;;5067908;28;20134;-82
2022/06/29 05:05:51;;;;;;;11.43;7.55;;;15.50;99.90;;;;;;5041979;28;20146;-81
2022/06/29 05:08:16;;;;;;;10.55;7.60;;;15.60;99.90;;;;;;5038322;28;20052;-82
2022/06/29 05:10:42;;;;;;;11.63;7.93;;;15.60;99.90;;;;;;5059266;28;20071;-82
2022/06/29 05:13:09;;;;;;;9.23;7.38;;;15.60;99.90;;;;;;5059456;28;20973;-82
2022/06/29 05:15:35;;;;;;;9.77;8.38;;;15.70;99.90;;;;;;5054536;28;20119;-81
2022/06/29 05:18:01;;;;;;;11.60;7.40;;;16.00;99.90;;;;;;5039963;28;20053;-80
2022/06/29 05:20:27;;;;;;;10.32;7.38;;;15.80;99.90;;;;;;5051490;28;20033;-81
2022/06/29 05:22:53;;;;;;;9.05;7.85;;;15.80;99.90;;;;;;5050656;28;20126;-81
2022/06/29 05:25:19;;;;;;;9.90;7.55;;;16.00;99.90;;;;;;5064377;28;20044;-79
2022/06/29 05:27:46;;;;;;;12.38;7.90;;;15.90;99.90;;;;;;5050234;28;20044;-80
2022/06/29 05:30:12;;;;;;;11.02;8.10;;;16.00;99.90;;;;;;5021531;28;20053;-80
2022/06/29 05:32:38;;;;;;;10.63;7.85;;;16.00;99.90;;;;;;5040804;28;20227;-80
2022/06/29 05:35:04;;;;;;;10.48;7.53;;;16.10;99.90;;;;;;5040862;28;20055;-80
2022/06/29 05:37:30;;;;;;;8.95;7.93;;;16.10;99.90;;;;;;5059812;28;20089;-82
2022/06/29 05:39:56;;;;;;;9.25;7.38;;;16.20;99.90;;;;;;5052274;28;20055;-81
2022/06/29 05:42:22;;;;;;;9.60;7.40;;;16.40;99.90;;;;;;5064383;28;20067;-80
2022/06/29 05:44:47;;;;;;;13.43;7.90;;;16.40;99.90;;;;;;5039588;28;20052;-81
2022/06/29 05:47:14;;;;;;;10.95;7.70;;;16.50;99.90;;;;;;5038575;28;20044;-81
2022/06/29 05:49:40;;;;;;;13.50;8.02;;;16.10;99.90;;;;;;5050123;28;20037;-81
2022/06/29 05:52:06;;;;;;;8.52;7.43;;;16.10;99.90;;;;;;5058952;28;20542;-81
2022/06/29 05:54:32;;;;;;;9.43;7.72;;;16.10;99.90;;;;;;5039589;28;20143;-81
2022/06/29 05:56:58;;;;;;;10.40;7.60;;;16.10;99.90;;;;;;5044927;28;20066;-81
2022/06/29 05:59:23;;;;;;;10.02;7.43;;;16.10;99.90;;;;;;5057308;28;20088;-80
2022/06/29 06:01:49;;;;;;;8.68;7.43;;;16.10;99.90;;;;;;5057100;28;20044;-78
2022/06/29 06:04:15;;;;;;;8.52;7.05;;;16.40;99.90;;;;;;5058011;28;20054;-81
2022/06/29 06:06:40;;;;;;;13.85;7.13;;;16.20;99.90;;;;;;5068197;28;20040;-78
2022/06/29 06:09:07;;;;;;;9.32;7.20;;;16.20;99.90;;;;;;5067651;28;20140;-80
2022/06/29 06:11:33;;;;;;;10.88;6.85;;;16.20;99.90;;;;;;5030695;28;20048;-79
2022/06/29 06:13:59;;;;;;;9.35;6.80;;;16.20;99.90;;;;;;5056692;28;20498;-79
2022/06/29 06:16:24;;;;;;;9.18;7.32;;;16.30;99.90;;;;;;5059543;28;20048;-77
2022/06/29 06:18:50;;;;;;;11.73;7.15;;;16.30;99.90;;;;;;5074819;28;20681;-76
2022/06/29 06:21:15;;;;;;;9.23;6.85;;;16.30;99.90;;;;;;5062591;28;20043;-83
2022/06/29 06:23:41;;;;;;;10.73;6.63;;;16.40;99.90;;;;;;5058806;28;20055;-81
2022/06/29 06:26:07;;;;;;;8.30;6.30;;;16.50;99.90;;;;;;5047483;28;21042;-80
2022/06/29 06:28:32;;;;;;;7.07;6.05;;;16.40;99.90;;;;;;5054958;28;20044;-81
2022/06/29 06:30:58;;;;;;;10.38;5.78;;;16.80;99.90;;;;;;5054034;28;20052;-80
2022/06/29 06:33:23;;;;;;;7.68;5.15;;;16.50;99.90;;;;;;5059474;28;20084;-80
2022/06/29 06:35:49;;;;;;;8.50;6.40;;;16.60;99.90;;;;;;5020274;28;20053;-80
2022/06/29 06:38:15;;;;;;;6.55;5.70;;;16.70;99.90;;;;;;5030900;28;20079;-77
2022/06/29 06:43:25;;;;;;;7.85;5.30;;;16.90;99.90;;;;;;5054056;28;20131;-81
2022/06/29 06:45:51;;;;;;;8.35;5.20;;;17.10;99.90;;;;;;5053366;28;20377;-82
2022/06/29 06:48:16;;;;;;;9.20;5.85;;;17.20;99.90;;;;;;5057967;28;20093;-81
2022/06/29 06:50:42;;;;;;;7.13;5.03;;;17.30;99.90;;;;;;5052101;28;20044;-81
2022/06/29 06:53:07;;;;;;;6.28;4.60;;;17.40;99.90;;;;;;5052551;28;20512;-80
2022/06/29 06:55:33;;;;;;;9.10;4.68;;;17.40;99.90;;;;;;5059110;28;20047;-80
2022/06/29 06:57:59;;;;;;;6.43;4.63;;;17.60;99.90;;;;;;5039973;28;20564;-78
2022/06/29 07:00:24;;;;;;;5.93;4.15;;;17.60;99.90;;;;;;5036694;28;20044;-78
2022/06/29 07:02:50;;;;;;;8.77;4.47;;;17.70;99.90;;;;;;5057494;28;20037;-81
2022/06/29 07:05:16;;;;;;;8.52;4.80;;;17.80;99.90;;;;;;5057424;28;20760;-83
2022/06/29 07:07:41;;;;;;;5.20;3.45;;;17.80;99.90;;;;;;5062147;28;20069;-85
2022/06/29 07:10:07;;;;;;;6.47;3.38;;;18.20;99.90;;;;;;5061907;28;20047;-84
2022/06/29 07:12:33;;;;;;;6.70;3.50;;;18.40;99.90;;;;;;5042831;28;20688;-82
2022/06/29 07:14:59;;;;;;;7.40;3.22;;;18.60;99.90;;;;;;5055735;28;20056;-79
2022/06/29 07:17:24;;;;;;;5.68;3.30;;;18.90;99.90;;;;;;5054350;28;20696;-79
2022/06/29 07:19:50;;;;;;;6.53;3.15;;;19.30;99.90;;;;;;5040433;28;20127;-83
2022/06/29 07:22:16;;;;;;;6.07;2.50;;;19.60;99.90;;;;;;5059050;28;20465;-86
2022/06/29 07:24:41;;;;;;;7.93;2.40;;;20.00;99.90;;;;;;5074324;28;20047;-83
2022/06/29 07:27:07;;;;;;;4.18;2.72;;;20.20;99.90;;;;;;5039635;28;20188;-84
2022/06/29 07:29:32;;;;;;;6.70;2.13;;;20.60;99.90;;;;;;5055775;28;20087;-81
2022/06/29 07:31:58;;;;;;;4.57;2.17;;;21.00;99.90;;;;;;5052525;28;20052;-82
2022/06/29 07:34:24;;;;;;;4.70;2.08;;;21.30;99.90;;;;;;5052095;28;20098;-82
2022/06/29 07:36:49;;;;;;;7.72;1.90;;;21.50;99.90;;;;;;5058231;28;20037;-82
2022/06/29 07:39:15;;;;;;;5.18;2.00;;;21.70;99.90;;;;;;5060798;28;20040;-82
2022/06/29 07:41:41;;;;;;;4.35;1.67;;;22.00;99.90;;;;;;5060792;28;20056;-82
2022/06/29 07:44:07;;;;;;;5.90;2.17;;;22.20;99.90;;;;;;5048541;28;20056;-82
2022/06/29 07:46:33;;;;;;;4.28;1.73;;;22.30;99.90;;;;;;5061584;28;20127;-82
2022/06/29 07:48:59;;;;;;;4.65;1.83;;;22.50;99.90;;;;;;5043605;28;20129;-82
2022/06/29 07:51:25;;;;;;;5.40;2.10;;;22.60;99.90;;;;;;5030752;28;20044;-83
2022/06/29 07:53:51;;;;;;;3.72;1.70;;;22.80;99.90;;;;;;5058952;28;20553;-83
2022/06/29 07:56:16;;;;;;;5.43;2.20;;;23.00;99.90;;;;;;5043424;28;20851;-83
2022/06/29 07:58:42;;;;;;;5.75;2.10;;;23.00;99.90;;;;;;5037388;28;20044;-83
2022/06/29 08:01:08;;;;;;;4.07;1.98;;;23.10;99.90;;;;;;5058699;28;20653;-83
2022/06/29 08:03:33;;;;;;;3.50;2.10;;;23.00;99.90;;;;;;5059136;28;20628;-83
2022/06/29 08:05:59;;;;;;;6.13;2.17;;;23.10;99.90;;;;;;5040408;28;20040;-83
2022/06/29 08:08:25;;;;;;;5.30;2.10;;;23.30;99.90;;;;;;5041440;28;20052;-83
2022/06/29 08:10:51;;;;;;;4.80;2.00;;;23.40;99.90;;;;;;5060436;28;20040;-83
2022/06/29 08:13:17;;;;;;;6.20;1.67;;;23.40;99.90;;;;;;5060676;28;20102;-83
2022/06/29 08:15:45;;;;;;;3.58;1.70;;;23.50;99.90;;;;;;5069044;28;20040;-83
2022/06/29 08:18:14;;;;;;;3.63;1.80;;;23.60;99.90;;;;;;5041459;28;20044;-83
2022/06/29 08:20:40;;;;;;;3.45;1.75;;;23.50;99.90;;;;;;5059656;28;20048;-84
2022/06/29 08:23:06;;;;;;;5.55;2.25;;;23.50;99.90;;;;;;5040609;28;20055;-84
2022/06/29 08:25:32;;;;;;;5.85;1.92;;;23.60;99.90;;;;;;5055940;28;20106;-83
2022/06/29 08:27:58;;;;;;;6.05;1.67;;;23.80;99.90;;;;;;5059781;28;20036;-83
2022/06/29 08:30:24;;;;;;;5.07;1.65;;;24.00;99.90;;;;;;5039659;28;20070;-83
2022/06/29 08:32:50;;;;;;;4.15;1.80;;;24.00;99.90;;;;;;5023125;28;20838;-84
2022/06/29 08:35:17;;;;;;;6.43;1.73;;;23.90;99.90;;;;;;5035628;28;20043;-81
2022/06/29 08:37:44;;;;;;;4.78;1.50;;;23.90;99.90;;;;;;5067991;28;20047;-79
2022/06/29 08:40:13;;;;;;;6.15;1.48;;;23.80;99.90;;;;;;5067448;28;20404;-80
2022/06/29 08:42:39;;;;;;;5.70;1.77;;;23.70;99.90;;;;;;5036732;28;20075;-80
2022/06/29 08:45:06;;;;;;;3.92;1.45;;;23.70;99.90;;;;;;5040961;28;20761;-79
2022/06/29 08:47:32;;;;;;;4.25;1.63;;;23.70;99.90;;;;;;5037924;28;20173;-84
2022/06/29 08:49:58;;;;;;;4.22;1.77;;;23.70;99.90;;;;;;5050758;28;20826;-84
2022/06/29 08:52:26;;;;;;;3.95;1.63;;;23.70;99.90;;;;;;5059567;28;20044;-84
2022/06/29 08:54:54;;;;;;;5.47;1.33;;;23.90;99.90;;;;;;5041518;28;20757;-83
2022/06/29 08:57:25;;;;;;;3.85;1.63;;;24.00;99.90;;;;;;5047508;28;20147;-82
2022/06/29 08:59:52;;;;;;;3.28;1.50;;;24.30;99.70;;;;;;5054031;28;20063;-83
2022/06/29 09:02:18;;;;;;;5.32;1.52;;;24.40;99.50;;;;;;5042434;28;20496;-84
2022/06/29 09:04:43;;;;;;;3.85;1.65;;;24.50;99.20;;;;;;5051199;28;20037;-84
2022/06/29 09:07:09;;;;;;;4.20;1.67;;;24.50;98.40;;;;;;5043618;28;20050;-81
2022/06/29 09:10:03;;;;;;;3.60;1.40;;;24.50;98.30;;;;;;5058450;28;20104;-87
2022/06/29 09:12:31;;;;;;;3.75;1.27;;;24.60;98.40;;;;;;5063852;28;20044;-87
2022/06/29 09:14:58;;;;;;;5.03;1.50;;;24.60;99.10;;;;;;5053585;28;20052;-86
2022/06/29 09:17:24;;;;;;;3.65;1.55;;;24.60;99.50;;;;;;5048440;28;20639;-86
2022/06/29 09:19:53;;;;;;;6.05;1.73;;;24.50;99.70;;;;;;5080448;28;20044;-87
2022/06/29 09:22:19;;;;;;;6.10;1.60;;;24.50;99.90;;;;;;5042552;28;20052;-87
2022/06/29 09:24:45;;;;;;;4.32;1.75;;;24.50;99.90;;;;;;5059218;28;21173;-88
2022/06/29 09:27:11;;;;;;;4.82;1.63;;;24.70;99.20;;;;;;5067481;28;20040;-87
2022/06/29 09:29:41;;;;;;;2.28;1.20;;;24.70;98.30;;;;;;5053774;28;20060;-86
2022/06/29 09:32:09;;;;;;;10.95;2.50;;;24.80;98.30;;;;;;5040352;28;20846;-87
2022/06/29 09:34:37;;;;;;;2.97;1.30;;;25.00;98.50;;;;;;5050903;28;20056;-85
2022/06/29 09:37:06;;;;;;;3.55;1.40;;;24.90;98.30;;;;;;5041513;28;20095;-85
2022/06/29 09:39:38;;;;;;;5.55;1.80;;;25.10;97.20;;;;;;5040721;28;20399;-86
2022/06/29 09:42:09;;;;;;;7.13;1.58;;;25.30;96.60;;;;;;5045169;28;20444;-86
2022/06/29 09:44:35;;;;;;;5.30;2.00;;;25.30;95.50;;;;;;5076538;28;20136;-86
2022/06/29 09:47:05;;;;;;;3.88;1.48;;;25.50;95.30;;;;;;5054513;28;20036;-88
2022/06/29 09:49:32;;;;;;;3.38;1.58;;;25.50;94.00;;;;;;5047152;28;20055;-91
2022/06/29 09:52:00;;;;;;;3.70;1.50;;;25.50;94.20;;;;;;5063219;28;20122;-90
2022/06/29 09:54:40;;;;;;;3.80;1.83;;;25.60;94.50;;;;;;5050329;28;20052;-90
2022/06/29 09:57:07;;;;;;;5.10;1.98;;;25.80;93.90;;;;;;5055156;28;20045;-90
2022/06/29 10:02:45;;;;;;;3.92;1.27;;;25.90;94.30;;;;;;5060304;28;20757;-89
2022/06/29 10:05:14;;;;;;;4.65;1.67;;;25.80;94.30;;;;;;5042674;28;20058;-90
2022/06/29 10:07:45;;;;;;;6.43;1.90;;;25.90;94.50;;;;;;5039347;28;20072;-92
2022/06/29 10:10:14;;;;;;;10.65;2.10;;;26.00;94.70;;;;;;5065409;28;20119;-91
2022/06/29 10:16:08;;;;;;;6.50;1.95;;;26.20;95.10;;;;;;5049760;28;20053;-90
2022/06/29 10:18:55;;;;;;;5.55;1.65;;;26.20;93.10;;;;;;5041153;28;20771;-90
2022/06/29 10:21:27;;;;;;;4.57;2.10;;;26.20;93.40;;;;;;5042646;28;20049;-89
2022/06/29 10:24:00;;;;;;;4.47;1.40;;;26.10;94.20;;;;;;5041889;28;20052;-90
2022/06/29 10:26:34;;;;;;;3.75;1.52;;;26.20;94.00;;;;;;5061040;28;20036;-87
2022/06/29 10:29:09;;;;;;;7.43;2.17;;;26.30;93.80;;;;;;5058140;28;20109;-88
2022/06/29 10:31:53;;;;;;;6.15;1.50;;;26.40;94.20;;;;;;5060749;28;20053;-89
2022/06/29 10:34:31;;;;;;;3.28;1.40;;;26.40;92.90;;;;;;5059526;28;20049;-88
2022/06/29 10:37:11;;;;;;;5.80;1.70;;;26.50;93.00;;;;;;5060844;28;20048;-89
2022/06/29 10:39:43;;;;;;;4.05;1.77;;;26.40;93.10;;;;;;5061262;28;20052;-91
2022/06/29 10:45:25;;;;;;;5.30;1.70;;;26.50;93.00;;;;;;5041001;28;20048;-89
2022/06/29 10:47:58;;;;;;;4.22;1.50;;;26.40;93.10;;;;;;5036829;28;20493;-90
2022/06/29 10:50:26;;;;;;;3.17;1.25;;;26.40;93.30;;;;;;5021659;28;20064;-89
2022/06/29 10:53:12;;;;;;;8.57;2.70;;;26.30;92.80;;;;;;5056082;28;20136;-90
2022/06/29 10:55:42;;;;;;;3.90;1.50;;;26.30;93.00;;;;;;5053755;28;20056;-90
2022/06/29 10:58:09;;;;;;;7.93;1.83;;;26.30;92.80;;;;;;5038984;28;20509;-88
2022/06/29 11:00:40;;;;;;;4.07;1.55;;;26.40;93.20;;;;;;5035968;28;20238;-88
2022/06/29 11:03:14;;;;;;;3.40;1.35;;;26.60;92.60;;;;;;5057909;28;20700;-88
2022/06/29 11:13:58;;;;;;;;;;;27.00;91.80;;;;;;5040779;28;20060;-89
2022/06/29 11:16:36;;;;;;;3.70;1.60;;;27.10;89.90;;;;;;5063233;28;19924;-89
2022/06/29 11:19:03;;;;;;;6.30;1.60;;;27.10;91.90;;;;;;5053112;28;20049;-89
2022/06/29 11:21:30;;;;;;;4.25;1.30;;;27.20;91.70;;;;;;5039855;28;20049;-88
2022/06/29 11:24:04;;;;;;;2.55;1.27;;;27.30;90.10;;;;;;5070030;28;20097;-88
2022/06/29 11:26:31;;;;;;;4.95;1.42;;;27.50;89.00;;;;;;5061931;28;20139;-88
2022/06/29 11:28:57;;;;;;;3.95;1.40;;;27.50;87.90;;;;;;5077961;28;20059;-87
2022/06/29 11:31:23;;;;;;;5.55;1.40;;;27.50;89.10;;;;;;5083116;28;20075;-89
2022/06/29 11:33:50;;;;;;;6.32;1.33;;;27.40;89.90;;;;;;5083490;28;20094;-89
2022/06/29 11:36:26;;;;;;;3.25;1.35;;;27.40;90.20;;;;;;5058282;28;20540;-87
2022/06/29 11:38:55;;;;;;;4.82;1.40;;;27.20;90.40;;;;;;5056265;28;20045;-87
2022/06/29 11:41:25;;;;;;;3.65;1.30;;;27.20;90.10;;;;;;5042290;28;20052;-87
2022/06/29 11:44:05;;;;;;;3.03;1.55;;;27.20;90.50;;;;;;5024997;28;20049;-86
2022/06/29 11:46:37;;;;;;;4.78;1.50;;;27.40;90.80;;;;;;5054303;28;20040;-87
2022/06/29 11:51:56;;;;;;;2.75;1.67;;;27.50;91.10;;;;;;5043956;28;20049;-88
2022/06/29 11:54:46;;;;;;;3.35;1.73;;;27.50;90.80;;;;;;5030343;28;20045;-90
2022/06/29 11:57:17;;;;;;;6.85;1.77;;;27.70;90.40;;;;;;5034429;28;20084;-88
2022/06/29 11:59:44;;;;;;;5.60;1.83;;;27.90;90.90;;;;;;5054128;28;20049;-87
2022/06/29 12:02:15;;;;;;;3.85;1.80;;;27.90;89.90;;;;;;5061388;28;20052;-86
2022/06/29 12:04:42;;;;;;;6.25;2.00;;;27.80;87.50;;;;;;5064843;28;20035;-88
2022/06/29 12:07:10;;;;;;;4.45;2.13;;;27.80;89.00;;;;;;5080078;28;20139;-87
2022/06/29 12:09:37;;;;;;;4.57;1.63;;;27.90;88.90;;;;;;5051808;28;20669;-87
2022/06/29 12:12:04;;;;;;;5.30;1.90;;;27.80;88.50;;;;;;5035306;28;20056;-87
2022/06/29 12:14:30;;;;;;;4.60;2.30;;;27.80;89.30;;;;;;5039814;28;20120;-87
2022/06/29 12:16:56;;;;;;;4.10;1.98;;;27.80;89.20;;;;;;5063173;28;20544;-85
2022/06/29 12:19:21;;;;;;;5.15;2.38;;;27.90;88.10;;;;;;5055906;28;20103;-84
2022/06/29 12:21:48;;;;;;;6.15;3.33;;;28.00;89.20;;;;;;5053826;28;20170;-85
2022/06/29 12:24:15;;;;;;;7.38;2.63;;;28.10;88.20;;;;;;5055552;28;20044;-85
2022/06/29 12:26:41;;;;;;;3.90;2.20;;;28.20;88.00;;;;;;5049425;28;20040;-86
2022/06/29 12:29:07;;;;;;;4.63;2.30;;;28.20;87.80;;;;;;5061790;28;20159;-83
2022/06/29 12:31:36;;;;;;;7.35;2.28;;;28.20;87.20;;;;;;5080680;28;20913;-83
2022/06/29 12:34:03;;;;;;;4.13;2.38;;;28.20;87.20;;;;;;5058039;28;20048;-86
2022/06/29 12:36:28;;;;;;;3.50;2.60;;;28.20;87.80;;;;;;5060160;28;20056;-84
2022/06/29 12:38:54;;;;;;;5.72;2.90;;;28.30;88.80;;;;;;5059961;28;20043;-90
2022/06/29 12:41:20;;;;;;;6.80;3.38;;;28.40;89.30;;;;;;5058434;28;20547;-88
2022/06/29 12:43:45;;;;;;;5.40;3.05;;;28.40;88.40;;;;;;5053056;28;20051;-87
2022/06/29 12:46:11;;;;;;;5.78;3.65;;;28.40;88.10;;;;;;5070863;28;20048;-90
2022/06/29 12:48:37;;;;;;;5.75;3.03;;;28.40;88.90;;;;;;5072028;28;20142;-88
2022/06/29 12:51:03;;;;;;;5.60;3.20;;;28.50;89.50;;;;;;5070890;28;20062;-88
2022/06/29 12:53:28;;;;;;;4.72;3.20;;;28.50;89.50;;;;;;5041390;28;20044;-88
2022/06/29 12:55:54;;;;;;;5.63;3.22;;;28.60;89.40;;;;;;5047042;28;20047;-86
2022/06/29 12:58:20;;;;;;;6.05;3.50;;;28.60;89.30;;;;;;5057663;28;20051;-90
2022/06/29 13:00:46;;;;;;;7.18;3.38;;;28.50;90.10;;;;;;5029071;28;20155;-89
2022/06/29 13:03:12;;;;;;;9.43;3.47;;;28.40;89.20;;;;;;5041312;28;20048;-88
2022/06/29 13:05:37;;;;;;;5.78;3.45;;;28.40;89.20;;;;;;5030809;28;20055;-88
2022/06/29 13:08:03;;;;;;;4.85;3.10;;;28.50;89.20;;;;;;5045289;28;20822;-84
2022/06/29 13:10:31;;;;;;;7.63;3.50;;;28.80;89.10;;;;;;5042124;28;21032;-85
2022/06/29 13:12:57;;;;;;;7.40;3.50;;;28.90;89.40;;;;;;5034575;28;20036;-88
2022/06/29 13:15:23;;;;;;;4.85;3.40;;;28.80;90.00;;;;;;5061756;28;20798;-86